Time;durP1;ratioP1;P1;durP2;ratioP2;P2;SDS_P1;SDS_P2;PMS_P1;PMS_P2;Temp;Humidity;BMP_temperature;BMP_pressure;BME280_temperature;BME280_humidity;BME280_pressure;Samples;Min_cycle;Max_cycle;Signal;HPM_P1;HPM_P2
2021/11/04 00:02:10;;;;;;;0.50;0.50;;;8.70;99.90;;;;;;4408025;32;20114;-67
2021/11/04 00:04:36;;;;;;;0.82;0.73;;;8.80;99.90;;;;;;4409464;32;20082;-67
2021/11/04 00:07:02;;;;;;;0.80;0.80;;;8.70;99.90;;;;;;4409187;32;20140;-68
2021/11/04 00:09:28;;;;;;;5.57;0.75;;;8.60;99.90;;;;;;4409420;32;20061;-67
2021/11/04 00:11:53;;;;;;;1.02;1.00;;;8.60;99.90;;;;;;4410987;32;20077;-67
2021/11/04 00:14:19;;;;;;;0.70;0.70;;;8.60;99.90;;;;;;4412167;32;20128;-67
2021/11/04 00:16:44;;;;;;;3.05;0.93;;;8.60;99.90;;;;;;4412542;32;20081;-67
2021/11/04 00:19:10;;;;;;;2.05;1.00;;;8.60;99.90;;;;;;4410915;32;20157;-67
2021/11/04 00:21:35;;;;;;;0.70;0.70;;;8.60;99.90;;;;;;4410100;32;20124;-67
2021/11/04 00:24:01;;;;;;;0.40;0.40;;;8.60;99.90;;;;;;4414559;32;20061;-68
2021/11/04 00:26:27;;;;;;;1.10;1.02;;;8.60;99.90;;;;;;4409253;32;20132;-68
2021/11/04 00:28:53;;;;;;;0.60;0.60;;;8.50;99.90;;;;;;4410098;32;20070;-67
2021/11/04 00:31:19;;;;;;;1.67;1.33;;;8.50;99.90;;;;;;4407551;32;20117;-67
2021/11/04 00:33:45;;;;;;;1.17;1.08;;;8.50;99.90;;;;;;4414627;32;20514;-67
2021/11/04 00:36:11;;;;;;;1.62;1.02;;;8.50;99.90;;;;;;4409127;32;20065;-67
2021/11/04 00:38:36;;;;;;;0.80;0.80;;;8.60;99.90;;;;;;4411189;32;20173;-67
2021/11/04 00:41:02;;;;;;;1.83;1.25;;;8.60;99.90;;;;;;4404784;32;20101;-66
2021/11/04 00:43:27;;;;;;;0.93;0.88;;;8.60;99.90;;;;;;4414791;32;20432;-67
2021/11/04 00:45:53;;;;;;;1.87;1.17;;;8.50;99.90;;;;;;4409230;32;20094;-67
2021/11/04 00:48:18;;;;;;;1.08;0.90;;;8.40;99.90;;;;;;4409847;32;20081;-67
2021/11/04 00:50:44;;;;;;;3.72;0.90;;;8.40;99.90;;;;;;4409938;32;20089;-67
2021/11/04 00:53:09;;;;;;;0.98;0.90;;;8.40;99.90;;;;;;4413465;32;20328;-67
2021/11/04 00:55:35;;;;;;;0.90;0.90;;;8.40;99.90;;;;;;4407849;32;20140;-67
2021/11/04 00:58:00;;;;;;;3.97;1.10;;;8.30;99.90;;;;;;4410853;32;20115;-67
2021/11/04 01:00:26;;;;;;;0.88;0.68;;;8.30;99.90;;;;;;4409446;32;20082;-67
2021/11/04 01:02:52;;;;;;;0.85;0.85;;;8.30;99.90;;;;;;4408494;32;20136;-66
2021/11/04 01:05:18;;;;;;;0.88;0.80;;;8.40;99.90;;;;;;4412071;32;20073;-67
2021/11/04 01:07:44;;;;;;;1.35;1.15;;;8.40;99.90;;;;;;4410457;32;20498;-66
2021/11/04 01:10:10;;;;;;;2.67;1.65;;;8.40;99.90;;;;;;4411531;32;20588;-66
2021/11/04 01:12:36;;;;;;;0.60;0.60;;;8.30;99.90;;;;;;4410830;32;20136;-66
2021/11/04 01:15:02;;;;;;;8.73;1.75;;;8.30;99.90;;;;;;4409388;32;20696;-68
2021/11/04 01:17:28;;;;;;;2.35;1.27;;;8.30;99.90;;;;;;4408187;32;20665;-68
2021/11/04 01:19:53;;;;;;;1.87;1.33;;;8.30;99.90;;;;;;4408241;32;20381;-67
2021/11/04 01:22:20;;;;;;;0.82;0.82;;;8.40;99.90;;;;;;4410195;32;20863;-66
2021/11/04 01:24:45;;;;;;;1.12;1.10;;;8.40;99.90;;;;;;4408789;32;20077;-68
2021/11/04 01:27:11;;;;;;;0.50;0.50;;;8.40;99.90;;;;;;4411410;32;20089;-67
2021/11/04 01:29:36;;;;;;;2.65;1.25;;;8.30;99.90;;;;;;4411395;32;20076;-67
2021/11/04 01:32:02;;;;;;;1.02;0.95;;;8.30;99.90;;;;;;4409874;32;20130;-67
2021/11/04 01:34:27;;;;;;;1.02;0.98;;;8.30;99.90;;;;;;4406933;32;20457;-67
2021/11/04 01:36:53;;;;;;;1.15;1.05;;;8.40;99.90;;;;;;4408883;32;20061;-68
2021/11/04 01:39:18;;;;;;;2.80;1.42;;;8.30;99.90;;;;;;4411248;32;20093;-66
2021/11/04 01:41:44;;;;;;;0.70;0.70;;;8.30;99.90;;;;;;4407986;32;20073;-67
2021/11/04 01:44:09;;;;;;;0.60;0.60;;;8.20;99.90;;;;;;4410527;32;20077;-67
2021/11/04 01:46:35;;;;;;;3.22;1.33;;;8.30;99.90;;;;;;4410217;32;20499;-69
2021/11/04 01:49:00;;;;;;;0.73;0.73;;;8.30;99.90;;;;;;4408465;32;20129;-66
2021/11/04 01:51:26;;;;;;;1.73;1.40;;;8.40;99.90;;;;;;4408361;32;20204;-67
2021/11/04 01:53:52;;;;;;;1.87;1.62;;;8.30;99.90;;;;;;4410456;32;20452;-67
2021/11/04 01:56:18;;;;;;;0.47;0.47;;;8.40;99.90;;;;;;4409800;32;20697;-67
2021/11/04 01:58:44;;;;;;;6.30;2.72;;;8.40;99.90;;;;;;4410266;32;20089;-67
2021/11/04 02:01:10;;;;;;;1.30;1.20;;;8.30;99.90;;;;;;4410659;32;20060;-67
2021/11/04 02:03:43;;;;;;;1.27;1.17;;;8.30;99.90;;;;;;4412182;32;20077;-67
2021/11/04 02:06:48;;;;;;;1.08;0.93;;;8.40;99.90;;;;;;4411714;32;20535;-67
2021/11/04 02:09:20;;;;;;;13.50;1.08;;;8.40;99.90;;;;;;4387388;32;20077;-67
2021/11/04 02:12:01;;;;;;;1.27;1.08;;;8.40;99.90;;;;;;4411770;32;20070;-67
2021/11/04 02:14:31;;;;;;;3.00;1.58;;;8.40;99.90;;;;;;4409973;32;20062;-67
2021/11/04 02:16:59;;;;;;;3.10;1.75;;;8.40;99.90;;;;;;4409165;32;20121;-67
2021/11/04 02:19:38;;;;;;;1.35;1.25;;;8.40;99.90;;;;;;4410272;32;20062;-67
2021/11/04 02:22:08;;;;;;;0.73;0.73;;;8.40;99.90;;;;;;4407440;32;20122;-67
2021/11/04 02:24:43;;;;;;;1.85;1.25;;;8.40;99.90;;;;;;4410639;32;20480;-67
2021/11/04 02:27:11;;;;;;;1.55;1.15;;;8.40;99.90;;;;;;4407305;32;20081;-67
2021/11/04 02:29:40;;;;;;;1.58;1.12;;;8.40;99.90;;;;;;4410271;32;20084;-67
2021/11/04 02:32:07;;;;;;;1.30;1.20;;;8.40;99.90;;;;;;4408356;32;20101;-66
2021/11/04 02:34:34;;;;;;;10.23;2.10;;;8.30;99.90;;;;;;4410466;32;20098;-67
2021/11/04 02:37:00;;;;;;;1.48;1.20;;;8.20;99.90;;;;;;4403800;32;20102;-68
2021/11/04 02:39:29;;;;;;;0.90;0.68;;;8.20;99.90;;;;;;4411145;32;20431;-67
2021/11/04 02:41:55;;;;;;;1.00;1.00;;;8.20;99.90;;;;;;4409235;32;20082;-67
2021/11/04 02:44:21;;;;;;;2.00;1.17;;;8.30;99.90;;;;;;4411066;32;20074;-67
2021/11/04 02:46:47;;;;;;;3.37;1.25;;;8.40;99.90;;;;;;4411177;32;20113;-68
2021/11/04 02:49:13;;;;;;;1.77;0.90;;;8.40;99.90;;;;;;4408254;32;20069;-67
2021/11/04 02:51:39;;;;;;;1.95;1.45;;;8.40;99.90;;;;;;4406512;32;20511;-67
2021/11/04 02:54:08;;;;;;;1.65;1.00;;;8.30;99.90;;;;;;4408221;32;20082;-68
2021/11/04 02:56:46;;;;;;;0.65;0.65;;;8.30;99.90;;;;;;4410243;32;20081;-68
2021/11/04 02:59:13;;;;;;;3.03;1.58;;;8.20;99.90;;;;;;4409599;32;20497;-68
2021/11/04 03:01:41;;;;;;;2.05;1.27;;;8.20;99.90;;;;;;4403649;32;20081;-68
2021/11/04 03:04:06;;;;;;;2.37;1.20;;;8.20;99.90;;;;;;4409886;32;20066;-67
2021/11/04 03:06:32;;;;;;;2.83;0.85;;;8.20;99.90;;;;;;4409540;32;20738;-67
2021/11/04 03:08:57;;;;;;;6.55;2.08;;;8.30;99.90;;;;;;4407820;32;20158;-68
2021/11/04 03:11:23;;;;;;;2.08;1.30;;;8.30;99.90;;;;;;4410163;32;20538;-67
2021/11/04 03:13:48;;;;;;;1.75;1.27;;;8.30;99.90;;;;;;4411774;32;20137;-67
2021/11/04 03:16:15;;;;;;;2.42;1.52;;;8.30;99.90;;;;;;4413795;32;20140;-67
2021/11/04 03:18:40;;;;;;;1.30;1.20;;;8.30;99.90;;;;;;4410654;32;20089;-67
2021/11/04 03:21:06;;;;;;;1.75;1.60;;;8.30;99.90;;;;;;4414330;32;20449;-67
2021/11/04 03:23:31;;;;;;;1.95;1.42;;;8.30;99.90;;;;;;4409470;32;20098;-68
2021/11/04 03:25:58;;;;;;;1.25;1.15;;;8.30;99.90;;;;;;4407375;32;20680;-68
2021/11/04 03:28:26;;;;;;;2.05;1.25;;;8.20;99.90;;;;;;4409378;32;20429;-68
2021/11/04 03:30:53;;;;;;;4.87;2.75;;;8.20;99.90;;;;;;4414618;32;20615;-68
2021/11/04 03:33:21;;;;;;;1.50;1.40;;;8.20;99.90;;;;;;4411080;32;20065;-66
2021/11/04 03:35:47;;;;;;;2.22;0.88;;;8.30;99.90;;;;;;4410597;32;20078;-67
2021/11/04 03:38:14;;;;;;;2.00;1.20;;;8.30;99.90;;;;;;4408816;32;20109;-68
2021/11/04 03:40:41;;;;;;;0.90;0.90;;;8.30;99.90;;;;;;4413292;32;20662;-68
2021/11/04 03:43:08;;;;;;;6.22;1.90;;;8.40;99.90;;;;;;4413001;32;20086;-68
2021/11/04 03:45:36;;;;;;;1.58;1.48;;;8.40;99.90;;;;;;4411969;32;20093;-67
2021/11/04 03:48:03;;;;;;;1.15;0.95;;;8.40;99.90;;;;;;4409729;32;20093;-67
2021/11/04 03:50:29;;;;;;;7.68;1.67;;;8.40;99.90;;;;;;4415416;32;20077;-67
2021/11/04 03:52:55;;;;;;;2.28;1.42;;;8.40;99.90;;;;;;4409127;32;20073;-67
2021/11/04 03:55:25;;;;;;;1.80;1.08;;;8.40;99.90;;;;;;4414968;32;20124;-67
2021/11/04 03:57:51;;;;;;;8.90;3.95;;;8.40;99.90;;;;;;4408452;32;20881;-67
2021/11/04 04:00:18;;;;;;;1.87;1.45;;;8.40;99.90;;;;;;4410882;32;20097;-68
2021/11/04 04:02:46;;;;;;;2.35;1.80;;;8.40;99.90;;;;;;4407683;32;20072;-67
2021/11/04 04:05:13;;;;;;;18.67;1.45;;;8.30;99.90;;;;;;4414362;32;20221;-67
2021/11/04 04:07:38;;;;;;;2.80;1.75;;;8.20;99.90;;;;;;4408435;32;20069;-67
2021/11/04 04:10:05;;;;;;;7.90;2.80;;;8.20;99.90;;;;;;4414951;32;20142;-67
2021/11/04 04:12:30;;;;;;;7.20;1.60;;;8.20;99.90;;;;;;4413102;32;20082;-67
2021/11/04 04:14:55;;;;;;;3.37;2.22;;;8.20;99.90;;;;;;4410129;32;20697;-68
2021/11/04 04:17:22;;;;;;;2.53;1.83;;;8.20;99.90;;;;;;4411657;32;20089;-68
2021/11/04 04:19:49;;;;;;;1.65;1.52;;;8.20;99.90;;;;;;4410636;32;20108;-67
2021/11/04 04:22:15;;;;;;;1.37;1.12;;;8.10;99.90;;;;;;4411311;32;20069;-68
2021/11/04 04:24:41;;;;;;;3.87;1.75;;;8.20;99.90;;;;;;4409672;32;20110;-67
2021/11/04 04:27:06;;;;;;;2.37;1.73;;;8.20;99.90;;;;;;4411044;32;20081;-68
2021/11/04 04:29:32;;;;;;;3.08;1.73;;;8.20;99.90;;;;;;4410931;32;20076;-68
2021/11/04 04:31:59;;;;;;;3.08;1.65;;;8.20;99.90;;;;;;4408468;32;84073;-68
2021/11/04 04:34:25;;;;;;;7.68;1.95;;;8.20;99.90;;;;;;4407067;32;20089;-66
2021/11/04 04:36:51;;;;;;;8.65;2.20;;;8.20;99.90;;;;;;4397282;32;20140;-68
2021/11/04 04:39:16;;;;;;;4.85;2.33;;;8.20;99.90;;;;;;4410056;32;20224;-67
2021/11/04 04:41:42;;;;;;;5.25;2.47;;;8.20;99.90;;;;;;4407344;32;20110;-67
2021/11/04 04:44:07;;;;;;;6.78;1.80;;;8.30;99.90;;;;;;4409806;32;20097;-67
2021/11/04 04:46:33;;;;;;;1.85;1.65;;;8.30;99.90;;;;;;4410204;32;20140;-68
2021/11/04 04:48:58;;;;;;;2.67;1.83;;;8.30;99.90;;;;;;4413261;32;20384;-67
2021/11/04 04:51:24;;;;;;;1.55;1.40;;;8.30;99.90;;;;;;4413880;32;20085;-66
2021/11/04 04:53:49;;;;;;;4.37;1.67;;;8.30;99.90;;;;;;4410234;32;20078;-67
2021/11/04 04:56:15;;;;;;;2.95;1.65;;;8.20;99.90;;;;;;4412165;32;20503;-67
2021/11/04 04:58:41;;;;;;;6.60;1.67;;;8.20;99.90;;;;;;4404480;32;20098;-67
2021/11/04 05:01:06;;;;;;;4.62;2.08;;;8.20;99.90;;;;;;4410162;32;20057;-67
2021/11/04 05:03:32;;;;;;;5.10;1.62;;;8.30;99.90;;;;;;4411157;32;20081;-69
2021/11/04 05:05:57;;;;;;;2.08;1.87;;;8.40;99.90;;;;;;4410835;32;20387;-68
2021/11/04 05:08:23;;;;;;;1.62;1.35;;;8.40;99.90;;;;;;4407752;32;20061;-68
2021/11/04 05:10:48;;;;;;;3.90;1.50;;;8.30;99.90;;;;;;4409752;32;20078;-67
2021/11/04 05:13:14;;;;;;;3.87;2.53;;;8.30;99.90;;;;;;4409610;32;20093;-67
2021/11/04 05:15:39;;;;;;;2.65;1.83;;;8.30;99.90;;;;;;4409799;32;20084;-67
2021/11/04 05:18:07;;;;;;;8.05;2.83;;;8.40;99.90;;;;;;4409376;32;20207;-68
2021/11/04 05:20:34;;;;;;;3.22;2.17;;;8.40;99.90;;;;;;4409485;32;20081;-67
2021/11/04 05:22:59;;;;;;;2.15;1.70;;;8.20;99.90;;;;;;4399787;32;20057;-67
2021/11/04 05:25:25;;;;;;;1.17;1.08;;;8.20;99.90;;;;;;4403948;32;20563;-67
2021/11/04 05:27:51;;;;;;;4.30;2.35;;;8.10;99.90;;;;;;4409466;32;20066;-66
2021/11/04 05:30:19;;;;;;;3.10;1.85;;;8.20;99.90;;;;;;4411136;32;20628;-66
2021/11/04 05:32:45;;;;;;;3.33;2.12;;;8.20;99.90;;;;;;4411169;32;20514;-66
2021/11/04 05:35:12;;;;;;;5.10;2.10;;;8.30;99.90;;;;;;4410812;32;20082;-68
2021/11/04 05:37:37;;;;;;;5.65;1.95;;;8.30;99.90;;;;;;4411122;32;20093;-67
2021/11/04 05:40:04;;;;;;;3.70;1.65;;;8.30;99.90;;;;;;4410591;32;20089;-67
2021/11/04 05:42:29;;;;;;;12.60;3.35;;;8.20;99.90;;;;;;4410381;32;20098;-67
2021/11/04 05:44:55;;;;;;;2.90;2.17;;;8.20;99.90;;;;;;4410847;32;20085;-67
2021/11/04 05:47:20;;;;;;;11.05;2.53;;;8.20;99.90;;;;;;4403911;32;20085;-69
2021/11/04 05:49:47;;;;;;;2.80;1.92;;;8.20;99.90;;;;;;4409013;32;20148;-67
2021/11/04 05:52:13;;;;;;;4.95;1.83;;;8.20;99.90;;;;;;4411736;32;20168;-68
2021/11/04 05:54:39;;;;;;;2.90;2.28;;;8.20;99.90;;;;;;4410827;32;20069;-67
2021/11/04 05:57:04;;;;;;;5.55;2.78;;;8.20;99.90;;;;;;4412721;32;20113;-67
2021/11/04 05:59:30;;;;;;;3.37;1.75;;;8.20;99.90;;;;;;4406442;32;20108;-68
2021/11/04 06:01:56;;;;;;;9.93;2.35;;;8.20;99.90;;;;;;4401615;32;20714;-68
2021/11/04 06:04:22;;;;;;;4.50;2.17;;;8.30;99.90;;;;;;4405315;32;20066;-67
2021/11/04 06:06:48;;;;;;;2.58;1.75;;;8.10;99.90;;;;;;4406543;32;20172;-67
2021/11/04 06:09:14;;;;;;;6.05;2.50;;;8.20;99.90;;;;;;4408034;32;20522;-67
2021/11/04 06:11:40;;;;;;;12.02;2.35;;;8.20;99.90;;;;;;4405480;32;20122;-67
2021/11/04 06:14:06;;;;;;;5.18;2.30;;;8.20;99.90;;;;;;4405444;32;20608;-67
2021/11/04 06:16:32;;;;;;;4.50;2.25;;;8.20;99.90;;;;;;4410076;32;20061;-67
2021/11/04 06:18:57;;;;;;;8.73;2.30;;;8.20;99.90;;;;;;4393480;32;20366;-67
2021/11/04 06:21:23;;;;;;;4.28;2.12;;;8.20;99.90;;;;;;4410158;32;20503;-66
2021/11/04 06:23:49;;;;;;;6.75;2.30;;;8.30;99.90;;;;;;4404200;32;20518;-67
2021/11/04 06:26:15;;;;;;;4.78;1.85;;;8.30;99.90;;;;;;4400925;32;20316;-67
2021/11/04 06:28:41;;;;;;;7.37;2.08;;;8.30;99.90;;;;;;4396052;32;20070;-67
2021/11/04 06:31:06;;;;;;;5.22;2.62;;;8.20;99.90;;;;;;4387172;32;20082;-67
2021/11/04 06:33:32;;;;;;;4.22;1.95;;;8.20;99.90;;;;;;4387067;32;20106;-71
2021/11/04 06:35:59;;;;;;;3.05;1.85;;;8.20;99.90;;;;;;4403246;32;20078;-67
2021/11/04 06:38:25;;;;;;;4.93;1.17;;;8.20;99.90;;;;;;4401857;32;20073;-68
2021/11/04 06:40:51;;;;;;;4.55;2.28;;;8.20;99.90;;;;;;4412868;32;20178;-69
2021/11/04 06:43:17;;;;;;;1.45;1.35;;;8.20;99.90;;;;;;4398479;32;20105;-67
2021/11/04 06:45:47;;;;;;;5.18;1.95;;;8.20;99.90;;;;;;4400853;32;20428;-68
2021/11/04 06:48:21;;;;;;;3.87;1.65;;;8.20;99.90;;;;;;4392678;32;20193;-68
2021/11/04 06:50:49;;;;;;;4.57;1.77;;;8.10;99.90;;;;;;4392160;32;20157;-68
2021/11/04 06:53:20;;;;;;;4.37;1.98;;;8.20;99.90;;;;;;4393333;32;20121;-68
2021/11/04 06:55:46;;;;;;;4.25;1.67;;;8.20;99.90;;;;;;4397215;32;20189;-68
2021/11/04 06:58:14;;;;;;;5.78;2.25;;;8.20;99.90;;;;;;4389507;32;20772;-67
2021/11/04 07:00:45;;;;;;;3.90;1.85;;;8.20;99.90;;;;;;4388082;32;20167;-67
2021/11/04 07:03:22;;;;;;;4.60;2.42;;;8.20;99.90;;;;;;4384736;32;20088;-67
2021/11/04 07:05:47;;;;;;;2.03;1.35;;;8.20;99.90;;;;;;4393188;32;20082;-67
2021/11/04 07:08:24;;;;;;;10.63;3.12;;;8.30;99.90;;;;;;4390249;32;20073;-67
2021/11/04 07:10:57;;;;;;;4.60;2.47;;;8.20;99.90;;;;;;4384303;32;20117;-67
2021/11/04 07:13:24;;;;;;;2.80;1.55;;;8.30;99.90;;;;;;4393653;32;20162;-67
2021/11/04 07:15:50;;;;;;;1.98;1.50;;;8.30;99.90;;;;;;4403118;32;20100;-67
2021/11/04 07:18:19;;;;;;;9.05;2.90;;;8.10;99.90;;;;;;4390126;32;20667;-67
2021/11/04 07:20:48;;;;;;;11.85;2.50;;;8.20;99.90;;;;;;4395351;32;20081;-67
2021/11/04 07:23:22;;;;;;;5.65;2.30;;;8.20;99.90;;;;;;4391351;32;20058;-67
2021/11/04 07:25:52;;;;;;;12.48;2.30;;;8.20;99.90;;;;;;4387404;32;20090;-67
2021/11/04 07:28:19;;;;;;;15.57;3.93;;;8.20;99.90;;;;;;4392891;32;20078;-67
2021/11/04 07:30:46;;;;;;;4.22;2.22;;;8.20;99.90;;;;;;4395447;32;20245;-67
2021/11/04 07:33:15;;;;;;;3.72;2.45;;;8.20;99.90;;;;;;4391951;32;20106;-67
2021/11/04 07:35:41;;;;;;;4.70;1.80;;;8.20;99.90;;;;;;4398328;32;20559;-67
2021/11/04 07:38:10;;;;;;;5.55;2.55;;;8.30;99.90;;;;;;4375731;32;20066;-67
2021/11/04 07:40:36;;;;;;;7.50;2.67;;;8.30;99.90;;;;;;4393947;32;20073;-67
2021/11/04 07:43:02;;;;;;;4.03;2.17;;;8.30;99.90;;;;;;4398699;32;20187;-67
2021/11/04 07:45:30;;;;;;;7.18;2.00;;;8.30;99.90;;;;;;4389764;32;20339;-67
2021/11/04 07:47:55;;;;;;;8.88;3.10;;;8.30;99.90;;;;;;4393332;32;20577;-67
2021/11/04 07:50:23;;;;;;;2.33;1.60;;;8.40;99.90;;;;;;4392154;32;20086;-67
2021/11/04 07:52:49;;;;;;;5.57;2.35;;;8.40;99.90;;;;;;4388193;32;20468;-67
2021/11/04 07:55:15;;;;;;;5.25;2.42;;;8.40;99.90;;;;;;4394502;32;20093;-67
2021/11/04 07:57:42;;;;;;;4.15;2.25;;;8.50;99.90;;;;;;4389692;32;20090;-67
2021/11/04 08:00:11;;;;;;;2.75;1.85;;;8.50;99.90;;;;;;4393208;32;20085;-67
2021/11/04 08:02:37;;;;;;;10.15;2.40;;;8.50;99.90;;;;;;4394248;32;20591;-66
2021/11/04 08:05:03;;;;;;;26.80;5.47;;;8.60;99.90;;;;;;4395981;32;20089;-67
2021/11/04 08:07:33;;;;;;;3.30;2.30;;;8.50;99.90;;;;;;4393274;32;20078;-67
2021/11/04 08:09:58;;;;;;;5.87;1.40;;;8.50;99.90;;;;;;4396311;32;20085;-67
2021/11/04 08:12:24;;;;;;;22.05;3.58;;;8.50;99.90;;;;;;4383564;32;20166;-67
2021/11/04 08:14:49;;;;;;;11.68;2.00;;;8.50;99.90;;;;;;4389562;32;20070;-67
2021/11/04 08:17:15;;;;;;;11.60;2.05;;;8.40;99.90;;;;;;4394014;32;20098;-67
2021/11/04 08:19:40;;;;;;;3.30;2.00;;;8.30;99.90;;;;;;4385204;32;20100;-67
2021/11/04 08:22:06;;;;;;;2.58;1.98;;;8.30;99.90;;;;;;4391224;32;20114;-67
2021/11/04 08:24:32;;;;;;;9.93;3.17;;;8.30;99.90;;;;;;4391911;32;21157;-67
2021/11/04 08:26:58;;;;;;;1.75;1.42;;;8.30;99.90;;;;;;4389014;32;20539;-67
2021/11/04 08:29:24;;;;;;;11.98;3.22;;;8.10;99.90;;;;;;4388217;32;20058;-67
2021/11/04 08:31:49;;;;;;;4.68;1.30;;;8.20;99.90;;;;;;4394111;32;20206;-66
2021/11/04 08:34:15;;;;;;;4.65;3.08;;;8.20;99.90;;;;;;4395582;32;20137;-67
2021/11/04 08:36:42;;;;;;;5.07;1.85;;;8.10;99.90;;;;;;4393244;32;20078;-66
2021/11/04 08:39:08;;;;;;;17.85;3.45;;;8.00;99.90;;;;;;4391584;32;20097;-66
2021/11/04 08:41:34;;;;;;;7.05;2.53;;;8.10;99.90;;;;;;4387928;32;20538;-67
2021/11/04 08:43:59;;;;;;;3.25;2.45;;;8.10;99.90;;;;;;4384977;32;20506;-67
2021/11/04 08:46:25;;;;;;;2.05;1.85;;;8.10;99.90;;;;;;4394580;32;20698;-66
2021/11/04 08:48:50;;;;;;;2.53;2.05;;;8.10;99.90;;;;;;4396014;32;20106;-67
2021/11/04 08:51:16;;;;;;;1.75;1.45;;;8.10;99.90;;;;;;4395316;32;20609;-66
2021/11/04 08:53:41;;;;;;;2.03;1.50;;;8.10;99.90;;;;;;4373753;32;20114;-66
2021/11/04 08:56:08;;;;;;;4.12;2.83;;;8.00;99.90;;;;;;4389126;32;21235;-67
2021/11/04 08:58:34;;;;;;;4.35;1.62;;;8.00;99.90;;;;;;4386796;32;20152;-67
2021/11/04 09:01:00;;;;;;;3.33;1.98;;;8.00;99.90;;;;;;4390348;32;20948;-66
2021/11/04 09:03:26;;;;;;;8.63;2.70;;;8.10;99.90;;;;;;4389901;32;20242;-67
2021/11/04 09:05:51;;;;;;;4.37;1.55;;;8.10;99.90;;;;;;4394542;32;20139;-66
2021/11/04 09:08:17;;;;;;;3.97;2.55;;;8.10;99.90;;;;;;4388190;32;20145;-67
2021/11/04 09:10:43;;;;;;;3.78;1.95;;;8.10;99.90;;;;;;4391106;32;20098;-66
2021/11/04 09:13:08;;;;;;;1.65;1.52;;;8.10;99.90;;;;;;4388876;32;20113;-66
2021/11/04 09:15:35;;;;;;;4.40;2.33;;;8.10;99.90;;;;;;4392035;32;20150;-66
2021/11/04 09:18:01;;;;;;;5.07;1.98;;;8.10;99.90;;;;;;4383588;32;20082;-67
2021/11/04 09:20:27;;;;;;;6.25;1.60;;;8.10;99.90;;;;;;4394370;32;20078;-66
2021/11/04 09:22:53;;;;;;;4.35;1.75;;;8.10;99.90;;;;;;4394092;32;20094;-62
2021/11/04 09:25:22;;;;;;;6.37;2.15;;;8.10;99.90;;;;;;4392841;32;20077;-66
2021/11/04 09:27:50;;;;;;;2.75;1.48;;;8.10;99.90;;;;;;4389614;32;20111;-66
2021/11/04 09:30:17;;;;;;;3.17;1.65;;;8.20;99.90;;;;;;4395280;32;20074;-66
2021/11/04 09:32:44;;;;;;;1.20;1.10;;;8.20;99.90;;;;;;4395988;32;20629;-67
2021/11/04 09:35:10;;;;;;;1.25;1.20;;;8.10;99.90;;;;;;4395756;32;20081;-66
2021/11/04 09:37:36;;;;;;;1.77;1.40;;;8.20;99.90;;;;;;4391588;32;20552;-67
2021/11/04 09:40:03;;;;;;;4.80;1.10;;;8.20;99.90;;;;;;4385930;32;20078;-66
2021/11/04 09:42:29;;;;;;;4.05;1.95;;;8.10;99.90;;;;;;4386809;32;20128;-67
2021/11/04 09:44:55;;;;;;;0.93;0.90;;;8.20;99.90;;;;;;4390487;32;20089;-66
2021/11/04 09:47:23;;;;;;;4.60;1.30;;;8.20;99.90;;;;;;4390954;32;20084;-66
2021/11/04 09:49:51;;;;;;;1.02;0.98;;;8.10;99.90;;;;;;4396524;32;20077;-66
2021/11/04 09:52:20;;;;;;;1.85;1.37;;;8.20;99.90;;;;;;4391112;32;20098;-66
2021/11/04 09:54:45;;;;;;;1.75;1.25;;;8.10;99.90;;;;;;4391633;32;20081;-66
2021/11/04 09:57:11;;;;;;;1.12;1.08;;;8.10;99.90;;;;;;4392967;32;20105;-67
2021/11/04 09:59:36;;;;;;;24.50;1.62;;;8.10;99.90;;;;;;4388335;32;20090;-67
2021/11/04 10:02:14;;;;;;;1.48;1.05;;;8.20;99.90;;;;;;4391199;32;20519;-67
2021/11/04 10:04:41;;;;;;;3.45;1.58;;;8.10;99.90;;;;;;4390588;32;20080;-67
2021/11/04 10:07:08;;;;;;;3.70;1.35;;;8.10;99.90;;;;;;4392641;32;20662;-68
2021/11/04 10:09:34;;;;;;;3.58;1.55;;;8.20;99.90;;;;;;4389371;32;20094;-67
2021/11/04 10:12:05;;;;;;;2.42;1.10;;;8.20;99.90;;;;;;4396087;32;20533;-67
2021/11/04 10:14:33;;;;;;;1.15;0.90;;;8.10;99.90;;;;;;4394919;32;20089;-67
2021/11/04 10:16:59;;;;;;;1.70;1.37;;;8.10;99.90;;;;;;4397255;32;20073;-67
2021/11/04 10:19:39;;;;;;;1.20;0.80;;;8.20;99.90;;;;;;4385001;32;20152;-67
2021/11/04 10:22:05;;;;;;;2.08;1.42;;;8.10;99.90;;;;;;4369803;32;20159;-66
2021/11/04 10:24:31;;;;;;;1.58;0.98;;;8.10;99.90;;;;;;4380268;32;20189;-68
2021/11/04 10:26:56;;;;;;;2.42;1.35;;;8.10;99.90;;;;;;4381435;32;20174;-67
2021/11/04 10:29:36;;;;;;;0.85;0.85;;;8.10;99.90;;;;;;4380682;32;20245;-67
2021/11/04 10:32:02;;;;;;;1.27;1.15;;;8.20;99.90;;;;;;4365866;32;20110;-67
2021/11/04 10:34:30;;;;;;;0.40;0.40;;;8.20;99.90;;;;;;4383260;32;21539;-67
2021/11/04 10:37:08;;;;;;;1.17;0.95;;;8.20;99.90;;;;;;4384497;32;20074;-67
2021/11/04 10:39:37;;;;;;;1.73;1.10;;;8.20;99.90;;;;;;4388433;32;20090;-67
2021/11/04 10:42:03;;;;;;;1.27;1.10;;;8.20;99.90;;;;;;4397861;32;20072;-67
2021/11/04 10:44:30;;;;;;;0.45;0.45;;;8.20;99.90;;;;;;4392458;32;20596;-67
2021/11/04 10:46:57;;;;;;;2.20;1.12;;;8.20;99.90;;;;;;4393849;32;20081;-67
2021/11/04 10:49:24;;;;;;;0.50;0.50;;;8.20;99.90;;;;;;4399827;32;20586;-67
2021/11/04 10:51:58;;;;;;;0.62;0.62;;;8.00;99.90;;;;;;4396097;32;20085;-66
2021/11/04 10:54:24;;;;;;;4.37;1.20;;;8.00;99.90;;;;;;4390692;32;20188;-67
2021/11/04 10:56:52;;;;;;;1.12;1.02;;;8.00;99.90;;;;;;4395903;32;20526;-66
2021/11/04 10:59:19;;;;;;;0.93;0.85;;;8.10;99.90;;;;;;4397789;32;20065;-66
2021/11/04 11:01:47;;;;;;;1.12;0.95;;;8.10;99.90;;;;;;4398081;32;20783;-65
2021/11/04 11:04:18;;;;;;;0.40;0.40;;;8.20;99.90;;;;;;4396844;32;20069;-65
2021/11/04 11:06:47;;;;;;;1.33;0.82;;;8.30;99.90;;;;;;4399956;32;20152;-66
2021/11/04 11:09:18;;;;;;;0.70;0.70;;;8.20;99.90;;;;;;4396085;32;20161;-66
2021/11/04 11:11:47;;;;;;;1.42;0.88;;;8.20;99.90;;;;;;4395400;32;20069;-65
2021/11/04 11:14:15;;;;;;;3.10;1.10;;;8.10;99.90;;;;;;4394377;32;20144;-66
2021/11/04 11:16:43;;;;;;;0.77;0.77;;;8.10;99.90;;;;;;4395157;32;20551;-66
2021/11/04 11:19:10;;;;;;;0.85;0.85;;;8.10;99.90;;;;;;4386794;32;20618;-66
2021/11/04 11:21:42;;;;;;;0.40;0.40;;;8.20;99.90;;;;;;4386800;32;20160;-67
2021/11/04 11:24:09;;;;;;;0.43;0.43;;;8.10;99.90;;;;;;4394251;32;20066;-66
2021/11/04 11:26:36;;;;;;;0.77;0.70;;;8.20;99.90;;;;;;4388283;32;20078;-66
2021/11/04 11:29:02;;;;;;;0.82;0.60;;;8.20;99.90;;;;;;4390835;32;20089;-65
2021/11/04 11:31:28;;;;;;;0.55;0.55;;;8.10;99.90;;;;;;4398328;32;20098;-65
2021/11/04 11:34:16;;;;;;;0.70;0.70;;;8.10;99.90;;;;;;4396010;32;20098;-66
2021/11/04 11:37:06;;;;;;;6.37;1.08;;;8.20;99.90;;;;;;4386079;32;20144;-65
2021/11/04 11:39:38;;;;;;;0.40;0.40;;;8.10;99.90;;;;;;4389178;32;20097;-65
2021/11/04 11:42:06;;;;;;;1.58;0.95;;;8.10;99.90;;;;;;4400151;32;20194;-66
2021/11/04 11:44:36;;;;;;;0.65;0.65;;;8.10;99.90;;;;;;4392211;32;20755;-66
2021/11/04 11:47:04;;;;;;;3.53;1.20;;;8.00;99.90;;;;;;4399115;32;20109;-66
2021/11/04 11:49:33;;;;;;;1.08;0.80;;;8.00;99.90;;;;;;4397992;32;20112;-67
2021/11/04 11:51:58;;;;;;;0.52;0.52;;;8.00;99.90;;;;;;4390365;32;20096;-67
2021/11/04 11:54:53;;;;;;;1.73;0.70;;;8.10;99.90;;;;;;4392088;32;20132;-67
2021/11/04 11:57:18;;;;;;;0.40;0.40;;;8.10;99.90;;;;;;4383425;32;20176;-67
2021/11/04 11:59:49;;;;;;;0.50;0.50;;;8.20;99.90;;;;;;4389916;32;20442;-66
2021/11/04 12:02:35;;;;;;;;;;;8.20;99.90;;;;;;4383436;32;20110;-67
2021/11/04 12:05:23;;;;;;;0.37;0.37;;;8.10;99.90;;;;;;4377222;32;20584;-66
2021/11/04 12:07:49;;;;;;;1.17;0.80;;;8.10;99.90;;;;;;4371606;32;20752;-67
2021/11/04 12:10:32;;;;;;;0.68;0.68;;;8.10;99.90;;;;;;4382939;32;20276;-66
2021/11/04 12:12:59;;;;;;;0.50;0.50;;;8.00;99.90;;;;;;4382179;32;20074;-66
2021/11/04 12:15:25;;;;;;;0.50;0.50;;;8.00;99.90;;;;;;4381783;32;20066;-66
2021/11/04 12:18:14;;;;;;;1.30;0.88;;;8.00;99.90;;;;;;4384683;32;20074;-66
2021/11/04 12:20:56;;;;;;;0.40;0.40;;;8.10;99.90;;;;;;4387589;32;20080;-67
2021/11/04 12:23:31;;;;;;;0.47;0.47;;;8.20;99.90;;;;;;4381851;32;20797;-66
2021/11/04 12:25:57;;;;;;;0.47;0.47;;;8.20;99.90;;;;;;4379048;32;20070;-66
2021/11/04 12:28:22;;;;;;;1.75;1.45;;;8.20;99.90;;;;;;4379659;32;20198;-66
2021/11/04 12:30:48;;;;;;;0.47;0.43;;;8.20;99.90;;;;;;4384296;32;20109;-66
2021/11/04 12:33:14;;;;;;;0.40;0.40;;;8.20;99.90;;;;;;4391808;32;20152;-66
2021/11/04 12:35:57;;;;;;;4.07;1.10;;;8.20;99.90;;;;;;4390371;32;20089;-65
2021/11/04 12:38:36;;;;;;;0.37;0.37;;;8.20;99.90;;;;;;4385802;32;20131;-66
2021/11/04 12:41:07;;;;;;;0.45;0.45;;;8.20;99.90;;;;;;4391799;32;20566;-67
2021/11/04 12:43:33;;;;;;;0.57;0.57;;;8.20;99.90;;;;;;4386860;32;20523;-67
2021/11/04 12:46:18;;;;;;;2.87;0.80;;;8.40;99.90;;;;;;4388957;32;20081;-67
2021/11/04 12:48:48;;;;;;;1.45;0.68;;;8.30;99.90;;;;;;4393849;32;20085;-68
2021/11/04 12:51:15;;;;;;;0.45;0.45;;;8.30;99.90;;;;;;4384001;32;21737;-68
2021/11/04 12:54:02;;;;;;;1.45;0.68;;;8.20;99.90;;;;;;4396987;32;20575;-67
2021/11/04 12:56:52;;;;;;;0.52;0.52;;;8.30;99.90;;;;;;4382650;32;20550;-69
2021/11/04 12:59:42;;;;;;;2.53;0.60;;;8.30;99.90;;;;;;4388690;32;20684;-68
2021/11/04 13:02:18;;;;;;;0.77;0.77;;;8.30;99.90;;;;;;4390374;32;20038;-68